sensor_id;sensor_type;location;lat;lon;timestamp;P1;durP1;ratioP1;P2;durP2;ratioP2
72427;SDS011;60419;48.880;18.036;2023-04-25T00:00:55;6.85;;;4.78;;
72427;SDS011;60419;48.880;18.036;2023-04-25T00:03:41;6.95;;;4.35;;
72427;SDS011;60419;48.880;18.036;2023-04-25T00:06:26;7.07;;;5.13;;
72427;SDS011;60419;48.880;18.036;2023-04-25T00:09:12;7.70;;;5.20;;
72427;SDS011;60419;48.880;18.036;2023-04-25T00:11:57;7.03;;;5.45;;
72427;SDS011;60419;48.880;18.036;2023-04-25T00:14:43;7.47;;;5.68;;
72427;SDS011;60419;48.880;18.036;2023-04-25T00:17:28;7.38;;;4.63;;
72427;SDS011;60419;48.880;18.036;2023-04-25T00:20:14;8.82;;;5.05;;
72427;SDS011;60419;48.880;18.036;2023-04-25T00:23:00;6.85;;;4.78;;
72427;SDS011;60419;48.880;18.036;2023-04-25T00:25:45;8.88;;;5.80;;
72427;SDS011;60419;48.880;18.036;2023-04-25T00:28:33;10.07;;;5.70;;
72427;SDS011;60419;48.880;18.036;2023-04-25T00:31:18;7.60;;;5.45;;
72427;SDS011;60419;48.880;18.036;2023-04-25T00:34:04;7.85;;;5.10;;
72427;SDS011;60419;48.880;18.036;2023-04-25T00:36:50;7.43;;;5.38;;
72427;SDS011;60419;48.880;18.036;2023-04-25T00:39:36;6.47;;;5.00;;
72427;SDS011;60419;48.880;18.036;2023-04-25T00:42:21;7.57;;;4.93;;
72427;SDS011;60419;48.880;18.036;2023-04-25T00:45:07;5.85;;;4.65;;
72427;SDS011;60419;48.880;18.036;2023-04-25T00:47:57;5.30;;;3.90;;
72427;SDS011;60419;48.880;18.036;2023-04-25T00:50:44;6.68;;;4.47;;
72427;SDS011;60419;48.880;18.036;2023-04-25T00:53:37;6.60;;;4.65;;
72427;SDS011;60419;48.880;18.036;2023-04-25T00:56:23;5.97;;;4.20;;
72427;SDS011;60419;48.880;18.036;2023-04-25T00:59:09;6.43;;;4.28;;
72427;SDS011;60419;48.880;18.036;2023-04-25T01:01:55;5.75;;;3.97;;
72427;SDS011;60419;48.880;18.036;2023-04-25T01:04:40;5.35;;;3.63;;
72427;SDS011;60419;48.880;18.036;2023-04-25T01:07:26;4.50;;;3.05;;
72427;SDS011;60419;48.880;18.036;2023-04-25T01:10:12;5.00;;;3.65;;
72427;SDS011;60419;48.880;18.036;2023-04-25T01:12:57;4.97;;;3.30;;
72427;SDS011;60419;48.880;18.036;2023-04-25T01:15:43;5.05;;;3.05;;
72427;SDS011;60419;48.880;18.036;2023-04-25T01:18:28;5.20;;;3.00;;
72427;SDS011;60419;48.880;18.036;2023-04-25T01:21:14;5.10;;;3.28;;
72427;SDS011;60419;48.880;18.036;2023-04-25T01:24:00;4.10;;;2.80;;
72427;SDS011;60419;48.880;18.036;2023-04-25T01:26:46;6.53;;;3.13;;
72427;SDS011;60419;48.880;18.036;2023-04-25T01:29:34;5.57;;;3.67;;
72427;SDS011;60419;48.880;18.036;2023-04-25T01:32:21;7.22;;;3.40;;
72427;SDS011;60419;48.880;18.036;2023-04-25T01:35:10;4.95;;;3.42;;
72427;SDS011;60419;48.880;18.036;2023-04-25T01:37:56;6.10;;;3.63;;
72427;SDS011;60419;48.880;18.036;2023-04-25T01:40:42;7.50;;;3.67;;
72427;SDS011;60419;48.880;18.036;2023-04-25T01:43:30;5.57;;;3.60;;
72427;SDS011;60419;48.880;18.036;2023-04-25T01:46:16;7.03;;;4.18;;
72427;SDS011;60419;48.880;18.036;2023-04-25T01:49:01;6.20;;;4.00;;
72427;SDS011;60419;48.880;18.036;2023-04-25T01:51:47;6.55;;;3.50;;
72427;SDS011;60419;48.880;18.036;2023-04-25T01:54:33;5.38;;;3.65;;
72427;SDS011;60419;48.880;18.036;2023-04-25T01:57:18;4.90;;;3.13;;
72427;SDS011;60419;48.880;18.036;2023-04-25T02:00:04;5.70;;;3.50;;
72427;SDS011;60419;48.880;18.036;2023-04-25T02:02:51;5.20;;;3.20;;
72427;SDS011;60419;48.880;18.036;2023-04-25T02:05:38;6.35;;;3.30;;
72427;SDS011;60419;48.880;18.036;2023-04-25T02:08:25;5.32;;;3.75;;
72427;SDS011;60419;48.880;18.036;2023-04-25T02:11:11;4.70;;;3.50;;
72427;SDS011;60419;48.880;18.036;2023-04-25T02:13:57;7.35;;;3.75;;
72427;SDS011;60419;48.880;18.036;2023-04-25T02:16:42;4.80;;;3.38;;
72427;SDS011;60419;48.880;18.036;2023-04-25T02:19:28;5.65;;;4.05;;
72427;SDS011;60419;48.880;18.036;2023-04-25T02:22:14;6.88;;;3.70;;
72427;SDS011;60419;48.880;18.036;2023-04-25T02:24:59;5.03;;;3.50;;
72427;SDS011;60419;48.880;18.036;2023-04-25T02:27:45;6.15;;;4.38;;
72427;SDS011;60419;48.880;18.036;2023-04-25T02:30:31;5.45;;;3.63;;
72427;SDS011;60419;48.880;18.036;2023-04-25T02:33:16;5.60;;;4.00;;
72427;SDS011;60419;48.880;18.036;2023-04-25T02:36:02;6.22;;;3.67;;
72427;SDS011;60419;48.880;18.036;2023-04-25T02:38:48;8.48;;;4.45;;
72427;SDS011;60419;48.880;18.036;2023-04-25T02:41:33;6.07;;;4.15;;
72427;SDS011;60419;48.880;18.036;2023-04-25T02:44:19;6.93;;;4.43;;
72427;SDS011;60419;48.880;18.036;2023-04-25T02:47:05;6.50;;;4.32;;
72427;SDS011;60419;48.880;18.036;2023-04-25T02:49:50;6.95;;;4.43;;
72427;SDS011;60419;48.880;18.036;2023-04-25T02:52:35;6.07;;;4.43;;
72427;SDS011;60419;48.880;18.036;2023-04-25T02:55:21;10.13;;;4.88;;
72427;SDS011;60419;48.880;18.036;2023-04-25T02:58:07;6.40;;;4.45;;
72427;SDS011;60419;48.880;18.036;2023-04-25T03:00:52;5.80;;;4.25;;
72427;SDS011;60419;48.880;18.036;2023-04-25T03:03:38;6.72;;;5.00;;
72427;SDS011;60419;48.880;18.036;2023-04-25T03:06:24;7.57;;;5.20;;
72427;SDS011;60419;48.880;18.036;2023-04-25T03:09:10;6.88;;;4.32;;
72427;SDS011;60419;48.880;18.036;2023-04-25T03:11:55;8.35;;;4.40;;
72427;SDS011;60419;48.880;18.036;2023-04-25T03:14:41;8.90;;;5.30;;
72427;SDS011;60419;48.880;18.036;2023-04-25T03:17:26;7.63;;;5.03;;
72427;SDS011;60419;48.880;18.036;2023-04-25T03:20:11;9.25;;;4.82;;
72427;SDS011;60419;48.880;18.036;2023-04-25T03:22:57;8.05;;;4.63;;
72427;SDS011;60419;48.880;18.036;2023-04-25T03:25:42;6.43;;;5.40;;
72427;SDS011;60419;48.880;18.036;2023-04-25T03:28:28;6.50;;;4.82;;
72427;SDS011;60419;48.880;18.036;2023-04-25T03:31:13;7.00;;;4.88;;
72427;SDS011;60419;48.880;18.036;2023-04-25T03:33:59;6.40;;;4.18;;
72427;SDS011;60419;48.880;18.036;2023-04-25T03:36:44;6.93;;;4.63;;
72427;SDS011;60419;48.880;18.036;2023-04-25T03:39:29;5.47;;;4.20;;
72427;SDS011;60419;48.880;18.036;2023-04-25T03:42:15;7.45;;;5.05;;
72427;SDS011;60419;48.880;18.036;2023-04-25T03:45:00;7.25;;;4.20;;
72427;SDS011;60419;48.880;18.036;2023-04-25T03:47:46;8.45;;;4.88;;
72427;SDS011;60419;48.880;18.036;2023-04-25T03:50:31;8.02;;;4.90;;
72427;SDS011;60419;48.880;18.036;2023-04-25T03:53:16;6.15;;;4.68;;
72427;SDS011;60419;48.880;18.036;2023-04-25T03:56:02;6.80;;;4.78;;
72427;SDS011;60419;48.880;18.036;2023-04-25T03:58:47;8.88;;;4.82;;
72427;SDS011;60419;48.880;18.036;2023-04-25T04:01:33;6.97;;;4.57;;
72427;SDS011;60419;48.880;18.036;2023-04-25T04:04:18;7.05;;;4.78;;
72427;SDS011;60419;48.880;18.036;2023-04-25T04:07:04;6.80;;;5.00;;
72427;SDS011;60419;48.880;18.036;2023-04-25T04:09:49;7.82;;;5.22;;
72427;SDS011;60419;48.880;18.036;2023-04-25T04:12:35;6.13;;;4.28;;
72427;SDS011;60419;48.880;18.036;2023-04-25T04:15:20;7.22;;;4.85;;
72427;SDS011;60419;48.880;18.036;2023-04-25T04:18:05;7.47;;;5.07;;
72427;SDS011;60419;48.880;18.036;2023-04-25T04:20:51;7.40;;;5.18;;
72427;SDS011;60419;48.880;18.036;2023-04-25T04:23:36;7.90;;;5.00;;
72427;SDS011;60419;48.880;18.036;2023-04-25T04:26:22;7.28;;;4.93;;
72427;SDS011;60419;48.880;18.036;2023-04-25T04:29:11;7.07;;;5.05;;
72427;SDS011;60419;48.880;18.036;2023-04-25T04:31:56;6.65;;;5.10;;
72427;SDS011;60419;48.880;18.036;2023-04-25T04:34:41;6.68;;;4.47;;
72427;SDS011;60419;48.880;18.036;2023-04-25T04:37:27;6.07;;;4.70;;
72427;SDS011;60419;48.880;18.036;2023-04-25T04:40:12;6.45;;;4.40;;
72427;SDS011;60419;48.880;18.036;2023-04-25T04:43:00;6.35;;;4.72;;
72427;SDS011;60419;48.880;18.036;2023-04-25T04:45:45;6.93;;;4.55;;
72427;SDS011;60419;48.880;18.036;2023-04-25T04:48:31;6.60;;;4.57;;
72427;SDS011;60419;48.880;18.036;2023-04-25T04:51:20;7.85;;;4.95;;
72427;SDS011;60419;48.880;18.036;2023-04-25T04:54:05;9.43;;;5.18;;
72427;SDS011;60419;48.880;18.036;2023-04-25T04:56:51;6.35;;;4.55;;
72427;SDS011;60419;48.880;18.036;2023-04-25T04:59:37;6.22;;;4.80;;
72427;SDS011;60419;48.880;18.036;2023-04-25T05:02:22;7.20;;;4.65;;
72427;SDS011;60419;48.880;18.036;2023-04-25T05:05:08;6.93;;;4.93;;
72427;SDS011;60419;48.880;18.036;2023-04-25T05:07:53;6.43;;;4.68;;
72427;SDS011;60419;48.880;18.036;2023-04-25T05:10:39;6.78;;;4.70;;
72427;SDS011;60419;48.880;18.036;2023-04-25T05:13:24;7.18;;;5.10;;
72427;SDS011;60419;48.880;18.036;2023-04-25T05:16:10;6.55;;;4.45;;
72427;SDS011;60419;48.880;18.036;2023-04-25T05:18:55;5.97;;;4.18;;
72427;SDS011;60419;48.880;18.036;2023-04-25T05:21:40;8.90;;;5.40;;
72427;SDS011;60419;48.880;18.036;2023-04-25T05:24:28;7.50;;;4.97;;
72427;SDS011;60419;48.880;18.036;2023-04-25T05:27:13;6.03;;;4.70;;
72427;SDS011;60419;48.880;18.036;2023-04-25T05:30:02;7.00;;;5.30;;
72427;SDS011;60419;48.880;18.036;2023-04-25T05:32:47;7.82;;;4.72;;
72427;SDS011;60419;48.880;18.036;2023-04-25T05:35:33;7.78;;;5.43;;
72427;SDS011;60419;48.880;18.036;2023-04-25T05:38:18;7.07;;;5.70;;
72427;SDS011;60419;48.880;18.036;2023-04-25T05:41:03;8.27;;;5.63;;
72427;SDS011;60419;48.880;18.036;2023-04-25T05:43:49;7.00;;;5.20;;
72427;SDS011;60419;48.880;18.036;2023-04-25T05:46:35;6.60;;;5.22;;
72427;SDS011;60419;48.880;18.036;2023-04-25T05:49:20;7.00;;;5.18;;
72427;SDS011;60419;48.880;18.036;2023-04-25T05:52:06;3.88;;;2.80;;
72427;SDS011;60419;48.880;18.036;2023-04-25T05:54:51;6.05;;;3.55;;
72427;SDS011;60419;48.880;18.036;2023-04-25T05:57:36;3.47;;;2.40;;
72427;SDS011;60419;48.880;18.036;2023-04-25T06:00:22;4.28;;;3.00;;
72427;SDS011;60419;48.880;18.036;2023-04-25T06:03:07;5.28;;;2.50;;
72427;SDS011;60419;48.880;18.036;2023-04-25T06:05:54;4.32;;;2.85;;
72427;SDS011;60419;48.880;18.036;2023-04-25T06:08:40;4.40;;;2.60;;
72427;SDS011;60419;48.880;18.036;2023-04-25T06:11:26;3.17;;;2.20;;
72427;SDS011;60419;48.880;18.036;2023-04-25T06:14:11;4.57;;;1.85;;
72427;SDS011;60419;48.880;18.036;2023-04-25T06:16:57;2.95;;;1.90;;
72427;SDS011;60419;48.880;18.036;2023-04-25T06:19:42;4.13;;;2.20;;
72427;SDS011;60419;48.880;18.036;2023-04-25T06:22:27;2.83;;;1.83;;
72427;SDS011;60419;48.880;18.036;2023-04-25T06:25:13;4.30;;;1.95;;
72427;SDS011;60419;48.880;18.036;2023-04-25T06:27:58;4.15;;;2.20;;
72427;SDS011;60419;48.880;18.036;2023-04-25T06:30:43;4.03;;;2.10;;
72427;SDS011;60419;48.880;18.036;2023-04-25T06:33:29;3.70;;;2.33;;
72427;SDS011;60419;48.880;18.036;2023-04-25T06:36:14;3.72;;;2.15;;
72427;SDS011;60419;48.880;18.036;2023-04-25T06:39:00;4.90;;;2.30;;
72427;SDS011;60419;48.880;18.036;2023-04-25T06:41:45;4.40;;;2.10;;
72427;SDS011;60419;48.880;18.036;2023-04-25T06:44:30;4.22;;;2.33;;
72427;SDS011;60419;48.880;18.036;2023-04-25T06:47:16;3.58;;;1.98;;
72427;SDS011;60419;48.880;18.036;2023-04-25T06:50:01;4.75;;;2.17;;
72427;SDS011;60419;48.880;18.036;2023-04-25T06:52:47;2.60;;;1.58;;
72427;SDS011;60419;48.880;18.036;2023-04-25T06:55:32;3.50;;;1.88;;
72427;SDS011;60419;48.880;18.036;2023-04-25T06:58:18;3.15;;;1.50;;
72427;SDS011;60419;48.880;18.036;2023-04-25T07:01:03;2.42;;;1.73;;
72427;SDS011;60419;48.880;18.036;2023-04-25T07:03:49;2.65;;;1.50;;
72427;SDS011;60419;48.880;18.036;2023-04-25T07:06:34;2.65;;;1.38;;
72427;SDS011;60419;48.880;18.036;2023-04-25T07:09:23;2.42;;;1.52;;
72427;SDS011;60419;48.880;18.036;2023-04-25T07:12:08;2.92;;;1.70;;
72427;SDS011;60419;48.880;18.036;2023-04-25T07:14:53;3.05;;;1.88;;
72427;SDS011;60419;48.880;18.036;2023-04-25T07:17:39;2.65;;;1.50;;
72427;SDS011;60419;48.880;18.036;2023-04-25T07:20:24;3.92;;;1.48;;
72427;SDS011;60419;48.880;18.036;2023-04-25T07:23:10;2.25;;;1.20;;
72427;SDS011;60419;48.880;18.036;2023-04-25T07:25:55;3.63;;;1.42;;
72427;SDS011;60419;48.880;18.036;2023-04-25T07:28:41;2.65;;;1.40;;
72427;SDS011;60419;48.880;18.036;2023-04-25T07:31:26;2.72;;;1.63;;
72427;SDS011;60419;48.880;18.036;2023-04-25T07:34:12;2.92;;;1.75;;
72427;SDS011;60419;48.880;18.036;2023-04-25T07:36:57;3.25;;;1.70;;
72427;SDS011;60419;48.880;18.036;2023-04-25T07:39:44;2.30;;;1.50;;
72427;SDS011;60419;48.880;18.036;2023-04-25T07:42:33;5.93;;;2.35;;
72427;SDS011;60419;48.880;18.036;2023-04-25T07:45:18;3.60;;;2.30;;
72427;SDS011;60419;48.880;18.036;2023-04-25T07:48:04;4.30;;;2.28;;
72427;SDS011;60419;48.880;18.036;2023-04-25T07:50:49;3.97;;;2.10;;
72427;SDS011;60419;48.880;18.036;2023-04-25T07:53:35;4.65;;;2.25;;
72427;SDS011;60419;48.880;18.036;2023-04-25T07:56:22;4.15;;;2.05;;
72427;SDS011;60419;48.880;18.036;2023-04-25T07:59:07;3.72;;;2.30;;
72427;SDS011;60419;48.880;18.036;2023-04-25T08:01:53;4.40;;;2.30;;
72427;SDS011;60419;48.880;18.036;2023-04-25T08:04:38;3.63;;;2.30;;
72427;SDS011;60419;48.880;18.036;2023-04-25T08:07:24;3.95;;;2.10;;
72427;SDS011;60419;48.880;18.036;2023-04-25T08:10:10;5.00;;;2.00;;
72427;SDS011;60419;48.880;18.036;2023-04-25T08:12:55;3.60;;;1.70;;
72427;SDS011;60419;48.880;18.036;2023-04-25T08:15:40;3.20;;;1.83;;
72427;SDS011;60419;48.880;18.036;2023-04-25T08:18:26;2.92;;;1.67;;
72427;SDS011;60419;48.880;18.036;2023-04-25T08:21:11;2.95;;;1.30;;
72427;SDS011;60419;48.880;18.036;2023-04-25T08:23:57;3.38;;;1.77;;
72427;SDS011;60419;48.880;18.036;2023-04-25T08:26:43;5.10;;;2.05;;
72427;SDS011;60419;48.880;18.036;2023-04-25T08:29:28;2.95;;;1.90;;
72427;SDS011;60419;48.880;18.036;2023-04-25T08:32:14;2.95;;;1.80;;
72427;SDS011;60419;48.880;18.036;2023-04-25T08:34:59;4.00;;;2.15;;
72427;SDS011;60419;48.880;18.036;2023-04-25T08:37:45;2.25;;;1.58;;
72427;SDS011;60419;48.880;18.036;2023-04-25T08:40:30;4.50;;;2.03;;
72427;SDS011;60419;48.880;18.036;2023-04-25T08:43:22;3.47;;;2.20;;
72427;SDS011;60419;48.880;18.036;2023-04-25T08:46:08;5.13;;;2.35;;
72427;SDS011;60419;48.880;18.036;2023-04-25T08:48:55;3.13;;;2.05;;
72427;SDS011;60419;48.880;18.036;2023-04-25T08:54:32;2.70;;;1.77;;
72427;SDS011;60419;48.880;18.036;2023-04-25T08:57:18;4.82;;;1.88;;
72427;SDS011;60419;48.880;18.036;2023-04-25T09:00:03;3.13;;;2.00;;
72427;SDS011;60419;48.880;18.036;2023-04-25T09:02:50;2.65;;;1.95;;
72427;SDS011;60419;48.880;18.036;2023-04-25T09:05:35;3.88;;;1.90;;
72427;SDS011;60419;48.880;18.036;2023-04-25T09:08:21;3.80;;;2.20;;
72427;SDS011;60419;48.880;18.036;2023-04-25T09:11:07;3.00;;;2.03;;
72427;SDS011;60419;48.880;18.036;2023-04-25T09:14:09;3.10;;;1.88;;
72427;SDS011;60419;48.880;18.036;2023-04-25T09:17:09;4.32;;;2.42;;
72427;SDS011;60419;48.880;18.036;2023-04-25T09:19:54;2.92;;;1.98;;
72427;SDS011;60419;48.880;18.036;2023-04-25T09:22:40;3.50;;;1.98;;
72427;SDS011;60419;48.880;18.036;2023-04-25T09:25:25;5.70;;;2.30;;
72427;SDS011;60419;48.880;18.036;2023-04-25T09:28:11;4.32;;;2.53;;
72427;SDS011;60419;48.880;18.036;2023-04-25T09:30:57;3.95;;;2.35;;
72427;SDS011;60419;48.880;18.036;2023-04-25T09:33:42;3.55;;;2.22;;
72427;SDS011;60419;48.880;18.036;2023-04-25T09:36:29;4.43;;;2.20;;
72427;SDS011;60419;48.880;18.036;2023-04-25T09:39:15;6.68;;;2.10;;
72427;SDS011;60419;48.880;18.036;2023-04-25T09:42:00;3.35;;;2.00;;
72427;SDS011;60419;48.880;18.036;2023-04-25T09:44:47;3.60;;;2.20;;
72427;SDS011;60419;48.880;18.036;2023-04-25T09:47:33;5.18;;;2.40;;
72427;SDS011;60419;48.880;18.036;2023-04-25T09:50:22;5.20;;;2.35;;
72427;SDS011;60419;48.880;18.036;2023-04-25T09:53:09;5.25;;;2.70;;
72427;SDS011;60419;48.880;18.036;2023-04-25T09:55:55;6.75;;;3.45;;
72427;SDS011;60419;48.880;18.036;2023-04-25T09:58:42;4.18;;;2.60;;
72427;SDS011;60419;48.880;18.036;2023-04-25T10:01:28;16.60;;;3.90;;
72427;SDS011;60419;48.880;18.036;2023-04-25T10:04:13;16.17;;;4.85;;
72427;SDS011;60419;48.880;18.036;2023-04-25T10:07:11;4.88;;;2.80;;
72427;SDS011;60419;48.880;18.036;2023-04-25T10:10:00;3.85;;;2.60;;
72427;SDS011;60419;48.880;18.036;2023-04-25T10:12:47;3.20;;;2.30;;
72427;SDS011;60419;48.880;18.036;2023-04-25T10:15:36;19.85;;;4.82;;
72427;SDS011;60419;48.880;18.036;2023-04-25T10:18:22;8.23;;;3.30;;
72427;SDS011;60419;48.880;18.036;2023-04-25T10:21:08;4.90;;;3.15;;
72427;SDS011;60419;48.880;18.036;2023-04-25T10:23:55;4.53;;;2.58;;
72427;SDS011;60419;48.880;18.036;2023-04-25T10:26:41;4.03;;;2.63;;
72427;SDS011;60419;48.880;18.036;2023-04-25T10:29:26;5.63;;;3.00;;
72427;SDS011;60419;48.880;18.036;2023-04-25T10:32:12;8.10;;;3.35;;
72427;SDS011;60419;48.880;18.036;2023-04-25T10:34:57;5.13;;;2.70;;
72427;SDS011;60419;48.880;18.036;2023-04-25T10:41:10;3.92;;;2.50;;
72427;SDS011;60419;48.880;18.036;2023-04-25T10:43:59;5.20;;;2.50;;
72427;SDS011;60419;48.880;18.036;2023-04-25T10:46:46;3.88;;;2.30;;
72427;SDS011;60419;48.880;18.036;2023-04-25T10:49:32;6.70;;;3.22;;
72427;SDS011;60419;48.880;18.036;2023-04-25T10:55:08;14.63;;;4.38;;
72427;SDS011;60419;48.880;18.036;2023-04-25T10:57:53;6.63;;;3.22;;
72427;SDS011;60419;48.880;18.036;2023-04-25T11:00:39;4.30;;;2.75;;
72427;SDS011;60419;48.880;18.036;2023-04-25T11:03:25;3.95;;;2.70;;
72427;SDS011;60419;48.880;18.036;2023-04-25T11:06:15;4.07;;;2.50;;
72427;SDS011;60419;48.880;18.036;2023-04-25T11:09:08;6.05;;;2.60;;
72427;SDS011;60419;48.880;18.036;2023-04-25T11:11:58;6.38;;;2.72;;
72427;SDS011;60419;48.880;18.036;2023-04-25T11:14:44;5.28;;;2.70;;
72427;SDS011;60419;48.880;18.036;2023-04-25T11:17:30;4.82;;;2.47;;
72427;SDS011;60419;48.880;18.036;2023-04-25T11:20:16;4.68;;;2.70;;
72427;SDS011;60419;48.880;18.036;2023-04-25T11:23:01;5.25;;;2.75;;
72427;SDS011;60419;48.880;18.036;2023-04-25T11:25:46;4.35;;;2.85;;
72427;SDS011;60419;48.880;18.036;2023-04-25T11:28:32;4.97;;;3.03;;
72427;SDS011;60419;48.880;18.036;2023-04-25T11:31:20;4.65;;;2.88;;
72427;SDS011;60419;48.880;18.036;2023-04-25T11:34:06;4.70;;;2.63;;
72427;SDS011;60419;48.880;18.036;2023-04-25T11:36:52;4.20;;;2.83;;
72427;SDS011;60419;48.880;18.036;2023-04-25T11:39:38;8.10;;;3.30;;
72427;SDS011;60419;48.880;18.036;2023-04-25T11:42:23;4.97;;;2.72;;
72427;SDS011;60419;48.880;18.036;2023-04-25T11:45:09;5.60;;;3.22;;
72427;SDS011;60419;48.880;18.036;2023-04-25T11:47:55;5.25;;;3.10;;
72427;SDS011;60419;48.880;18.036;2023-04-25T11:50:41;4.95;;;3.10;;
72427;SDS011;60419;48.880;18.036;2023-04-25T11:53:26;6.07;;;2.88;;
72427;SDS011;60419;48.880;18.036;2023-04-25T11:56:13;4.43;;;2.53;;
72427;SDS011;60419;48.880;18.036;2023-04-25T12:01:48;4.07;;;2.80;;
72427;SDS011;60419;48.880;18.036;2023-04-25T12:04:34;3.80;;;2.50;;
72427;SDS011;60419;48.880;18.036;2023-04-25T12:07:20;4.97;;;2.50;;
72427;SDS011;60419;48.880;18.036;2023-04-25T12:10:11;5.15;;;2.80;;
72427;SDS011;60419;48.880;18.036;2023-04-25T12:12:59;3.88;;;2.40;;
72427;SDS011;60419;48.880;18.036;2023-04-25T12:15:45;3.90;;;2.92;;
72427;SDS011;60419;48.880;18.036;2023-04-25T12:18:30;6.03;;;2.95;;
72427;SDS011;60419;48.880;18.036;2023-04-25T12:21:16;4.63;;;2.53;;
72427;SDS011;60419;48.880;18.036;2023-04-25T12:27:02;5.57;;;2.88;;
72427;SDS011;60419;48.880;18.036;2023-04-25T12:29:55;3.92;;;2.47;;
72427;SDS011;60419;48.880;18.036;2023-04-25T12:32:41;5.00;;;2.53;;
72427;SDS011;60419;48.880;18.036;2023-04-25T12:35:27;3.42;;;2.40;;
72427;SDS011;60419;48.880;18.036;2023-04-25T12:38:19;5.45;;;2.58;;
72427;SDS011;60419;48.880;18.036;2023-04-25T12:41:06;4.38;;;2.80;;
72427;SDS011;60419;48.880;18.036;2023-04-25T12:43:52;3.95;;;2.30;;
72427;SDS011;60419;48.880;18.036;2023-04-25T12:46:37;4.82;;;2.72;;
72427;SDS011;60419;48.880;18.036;2023-04-25T12:49:23;5.22;;;2.53;;
72427;SDS011;60419;48.880;18.036;2023-04-25T12:52:09;3.90;;;2.30;;
72427;SDS011;60419;48.880;18.036;2023-04-25T12:54:54;4.70;;;2.38;;
72427;SDS011;60419;48.880;18.036;2023-04-25T12:57:40;6.93;;;2.63;;
72427;SDS011;60419;48.880;18.036;2023-04-25T13:00:25;3.08;;;2.20;;
72427;SDS011;60419;48.880;18.036;2023-04-25T13:03:11;4.32;;;2.50;;
72427;SDS011;60419;48.880;18.036;2023-04-25T13:05:57;3.65;;;2.25;;
72427;SDS011;60419;48.880;18.036;2023-04-25T13:08:42;4.25;;;3.00;;
72427;SDS011;60419;48.880;18.036;2023-04-25T13:11:28;10.35;;;3.05;;
72427;SDS011;60419;48.880;18.036;2023-04-25T13:14:13;7.07;;;2.78;;
72427;SDS011;60419;48.880;18.036;2023-04-25T13:16:58;5.15;;;2.53;;
72427;SDS011;60419;48.880;18.036;2023-04-25T13:19:44;4.30;;;2.42;;
72427;SDS011;60419;48.880;18.036;2023-04-25T13:22:29;3.08;;;2.20;;
72427;SDS011;60419;48.880;18.036;2023-04-25T13:25:15;4.90;;;2.92;;
72427;SDS011;60419;48.880;18.036;2023-04-25T13:28:01;5.38;;;2.80;;
72427;SDS011;60419;48.880;18.036;2023-04-25T13:30:46;4.00;;;2.58;;
72427;SDS011;60419;48.880;18.036;2023-04-25T13:33:32;4.50;;;2.70;;
72427;SDS011;60419;48.880;18.036;2023-04-25T13:36:18;4.55;;;2.50;;
72427;SDS011;60419;48.880;18.036;2023-04-25T13:39:03;3.35;;;1.83;;
72427;SDS011;60419;48.880;18.036;2023-04-25T13:41:50;4.95;;;1.88;;
72427;SDS011;60419;48.880;18.036;2023-04-25T13:44:35;3.03;;;1.85;;
72427;SDS011;60419;48.880;18.036;2023-04-25T13:47:20;3.03;;;1.70;;
72427;SDS011;60419;48.880;18.036;2023-04-25T13:50:07;3.25;;;1.60;;
72427;SDS011;60419;48.880;18.036;2023-04-25T13:52:53;2.40;;;1.55;;
72427;SDS011;60419;48.880;18.036;2023-04-25T13:55:38;4.30;;;1.70;;
72427;SDS011;60419;48.880;18.036;2023-04-25T13:58:24;2.42;;;1.30;;
72427;SDS011;60419;48.880;18.036;2023-04-25T14:01:10;2.25;;;1.33;;
72427;SDS011;60419;48.880;18.036;2023-04-25T14:03:55;1.92;;;1.13;;
72427;SDS011;60419;48.880;18.036;2023-04-25T14:06:42;2.70;;;1.40;;
72427;SDS011;60419;48.880;18.036;2023-04-25T14:09:27;5.65;;;1.50;;
72427;SDS011;60419;48.880;18.036;2023-04-25T14:12:13;2.55;;;1.48;;
72427;SDS011;60419;48.880;18.036;2023-04-25T14:14:59;2.78;;;1.48;;
72427;SDS011;60419;48.880;18.036;2023-04-25T14:17:45;2.95;;;1.55;;
72427;SDS011;60419;48.880;18.036;2023-04-25T14:20:30;1.85;;;1.30;;
72427;SDS011;60419;48.880;18.036;2023-04-25T14:23:16;2.83;;;1.30;;
72427;SDS011;60419;48.880;18.036;2023-04-25T14:26:02;2.95;;;1.50;;
72427;SDS011;60419;48.880;18.036;2023-04-25T14:28:47;3.22;;;1.55;;
72427;SDS011;60419;48.880;18.036;2023-04-25T14:31:33;3.58;;;1.90;;
72427;SDS011;60419;48.880;18.036;2023-04-25T14:34:18;2.80;;;1.20;;
72427;SDS011;60419;48.880;18.036;2023-04-25T14:37:04;2.70;;;1.52;;
72427;SDS011;60419;48.880;18.036;2023-04-25T14:39:50;2.22;;;1.20;;
72427;SDS011;60419;48.880;18.036;2023-04-25T14:42:36;2.13;;;1.40;;
72427;SDS011;60419;48.880;18.036;2023-04-25T14:45:21;2.45;;;1.30;;
72427;SDS011;60419;48.880;18.036;2023-04-25T14:48:07;2.72;;;1.48;;
72427;SDS011;60419;48.880;18.036;2023-04-25T14:50:52;4.50;;;1.35;;
72427;SDS011;60419;48.880;18.036;2023-04-25T14:53:39;4.38;;;1.30;;
72427;SDS011;60419;48.880;18.036;2023-04-25T14:56:25;2.45;;;1.35;;
72427;SDS011;60419;48.880;18.036;2023-04-25T14:59:10;3.00;;;1.33;;
72427;SDS011;60419;48.880;18.036;2023-04-25T15:01:55;3.05;;;1.63;;
72427;SDS011;60419;48.880;18.036;2023-04-25T15:04:41;3.25;;;1.95;;
72427;SDS011;60419;48.880;18.036;2023-04-25T15:07:27;5.43;;;2.08;;
72427;SDS011;60419;48.880;18.036;2023-04-25T15:10:12;3.78;;;2.10;;
72427;SDS011;60419;48.880;18.036;2023-04-25T15:13:00;2.65;;;1.80;;
72427;SDS011;60419;48.880;18.036;2023-04-25T15:15:46;3.05;;;1.90;;
72427;SDS011;60419;48.880;18.036;2023-04-25T15:18:35;3.05;;;1.80;;
72427;SDS011;60419;48.880;18.036;2023-04-25T15:21:21;2.97;;;1.80;;
72427;SDS011;60419;48.880;18.036;2023-04-25T15:24:06;3.88;;;1.92;;
72427;SDS011;60419;48.880;18.036;2023-04-25T15:26:52;7.70;;;2.08;;
72427;SDS011;60419;48.880;18.036;2023-04-25T15:29:38;3.53;;;2.33;;
72427;SDS011;60419;48.880;18.036;2023-04-25T15:32:23;3.75;;;2.28;;
72427;SDS011;60419;48.880;18.036;2023-04-25T15:35:08;3.38;;;2.00;;
72427;SDS011;60419;48.880;18.036;2023-04-25T15:37:54;8.27;;;2.20;;
72427;SDS011;60419;48.880;18.036;2023-04-25T15:40:39;4.35;;;2.00;;
72427;SDS011;60419;48.880;18.036;2023-04-25T15:43:25;4.38;;;1.95;;
72427;SDS011;60419;48.880;18.036;2023-04-25T15:46:10;3.60;;;2.13;;
72427;SDS011;60419;48.880;18.036;2023-04-25T15:48:56;2.60;;;1.50;;
72427;SDS011;60419;48.880;18.036;2023-04-25T15:51:41;2.50;;;1.45;;
72427;SDS011;60419;48.880;18.036;2023-04-25T15:54:26;3.28;;;1.80;;
72427;SDS011;60419;48.880;18.036;2023-04-25T15:57:12;3.50;;;1.70;;
72427;SDS011;60419;48.880;18.036;2023-04-25T15:59:57;3.63;;;1.85;;
72427;SDS011;60419;48.880;18.036;2023-04-25T16:02:43;3.17;;;1.70;;
72427;SDS011;60419;48.880;18.036;2023-04-25T16:05:30;4.20;;;2.20;;
72427;SDS011;60419;48.880;18.036;2023-04-25T16:08:16;4.05;;;2.15;;
72427;SDS011;60419;48.880;18.036;2023-04-25T16:11:01;2.85;;;2.00;;
72427;SDS011;60419;48.880;18.036;2023-04-25T16:13:47;5.15;;;2.10;;
72427;SDS011;60419;48.880;18.036;2023-04-25T16:16:32;3.47;;;1.80;;
72427;SDS011;60419;48.880;18.036;2023-04-25T16:19:18;3.72;;;2.03;;
72427;SDS011;60419;48.880;18.036;2023-04-25T16:22:03;4.72;;;2.17;;
72427;SDS011;60419;48.880;18.036;2023-04-25T16:24:49;3.95;;;1.95;;
72427;SDS011;60419;48.880;18.036;2023-04-25T16:27:34;3.38;;;1.80;;
72427;SDS011;60419;48.880;18.036;2023-04-25T16:30:21;2.80;;;1.70;;
72427;SDS011;60419;48.880;18.036;2023-04-25T16:33:07;3.00;;;1.60;;
72427;SDS011;60419;48.880;18.036;2023-04-25T16:35:52;3.80;;;1.75;;
72427;SDS011;60419;48.880;18.036;2023-04-25T16:38:38;3.70;;;1.70;;